sensor_id;sensor_type;location;lat;lon;timestamp;P1;durP1;ratioP1;P2;durP2;ratioP2
52188;SDS011;38162;45.926;13.608;2023-11-21T00:01:04;13.65;;;9.73;;
52188;SDS011;38162;45.926;13.608;2023-11-21T00:03:30;16.92;;;9.68;;
52188;SDS011;38162;45.926;13.608;2023-11-21T00:05:57;16.02;;;9.25;;
52188;SDS011;38162;45.926;13.608;2023-11-21T00:08:22;17.55;;;9.50;;
52188;SDS011;38162;45.926;13.608;2023-11-21T00:10:48;12.45;;;9.05;;
52188;SDS011;38162;45.926;13.608;2023-11-21T00:13:14;13.55;;;8.75;;
52188;SDS011;38162;45.926;13.608;2023-11-21T00:15:40;15.35;;;9.02;;
52188;SDS011;38162;45.926;13.608;2023-11-21T00:18:06;10.63;;;8.13;;
52188;SDS011;38162;45.926;13.608;2023-11-21T00:20:31;14.02;;;9.43;;
52188;SDS011;38162;45.926;13.608;2023-11-21T00:22:57;11.63;;;8.43;;
52188;SDS011;38162;45.926;13.608;2023-11-21T00:25:24;13.02;;;8.23;;
52188;SDS011;38162;45.926;13.608;2023-11-21T00:27:50;16.67;;;8.63;;
52188;SDS011;38162;45.926;13.608;2023-11-21T00:30:16;14.70;;;8.50;;
52188;SDS011;38162;45.926;13.608;2023-11-21T00:32:42;13.48;;;8.82;;
52188;SDS011;38162;45.926;13.608;2023-11-21T00:35:08;12.10;;;7.85;;
52188;SDS011;38162;45.926;13.608;2023-11-21T00:37:34;13.25;;;7.95;;
52188;SDS011;38162;45.926;13.608;2023-11-21T00:40:00;11.35;;;7.32;;
52188;SDS011;38162;45.926;13.608;2023-11-21T00:42:30;11.75;;;7.22;;
52188;SDS011;38162;45.926;13.608;2023-11-21T00:44:57;13.82;;;8.30;;
52188;SDS011;38162;45.926;13.608;2023-11-21T00:47:22;13.57;;;8.98;;
52188;SDS011;38162;45.926;13.608;2023-11-21T00:49:48;14.30;;;8.75;;
52188;SDS011;38162;45.926;13.608;2023-11-21T00:52:14;12.45;;;8.30;;
52188;SDS011;38162;45.926;13.608;2023-11-21T00:54:40;13.35;;;10.40;;
52188;SDS011;38162;45.926;13.608;2023-11-21T00:57:06;15.18;;;12.15;;
52188;SDS011;38162;45.926;13.608;2023-11-21T00:59:33;23.60;;;14.80;;
52188;SDS011;38162;45.926;13.608;2023-11-21T01:02:00;19.52;;;15.10;;
52188;SDS011;38162;45.926;13.608;2023-11-21T01:04:26;23.63;;;14.70;;
52188;SDS011;38162;45.926;13.608;2023-11-21T01:06:52;23.90;;;18.10;;
52188;SDS011;38162;45.926;13.608;2023-11-21T01:09:18;27.15;;;18.13;;
52188;SDS011;38162;45.926;13.608;2023-11-21T01:11:44;27.08;;;16.27;;
52188;SDS011;38162;45.926;13.608;2023-11-21T01:14:11;20.75;;;15.27;;
52188;SDS011;38162;45.926;13.608;2023-11-21T01:16:38;19.23;;;14.85;;
52188;SDS011;38162;45.926;13.608;2023-11-21T01:19:04;19.35;;;15.10;;
52188;SDS011;38162;45.926;13.608;2023-11-21T01:21:30;21.10;;;13.60;;
52188;SDS011;38162;45.926;13.608;2023-11-21T01:23:56;16.63;;;11.18;;
52188;SDS011;38162;45.926;13.608;2023-11-21T01:26:22;13.98;;;10.18;;
52188;SDS011;38162;45.926;13.608;2023-11-21T01:28:48;12.13;;;9.40;;
52188;SDS011;38162;45.926;13.608;2023-11-21T01:31:14;12.95;;;9.68;;
52188;SDS011;38162;45.926;13.608;2023-11-21T01:33:40;12.35;;;8.52;;
52188;SDS011;38162;45.926;13.608;2023-11-21T01:36:06;16.00;;;8.88;;
52188;SDS011;38162;45.926;13.608;2023-11-21T01:38:32;11.45;;;8.20;;
52188;SDS011;38162;45.926;13.608;2023-11-21T01:40:59;15.15;;;8.63;;
52188;SDS011;38162;45.926;13.608;2023-11-21T01:43:26;14.50;;;9.02;;
52188;SDS011;38162;45.926;13.608;2023-11-21T01:45:53;15.02;;;8.68;;
52188;SDS011;38162;45.926;13.608;2023-11-21T01:48:22;11.63;;;8.30;;
52188;SDS011;38162;45.926;13.608;2023-11-21T01:50:51;15.93;;;8.75;;
52188;SDS011;38162;45.926;13.608;2023-11-21T01:53:17;16.38;;;8.38;;
52188;SDS011;38162;45.926;13.608;2023-11-21T01:55:43;23.58;;;8.77;;
52188;SDS011;38162;45.926;13.608;2023-11-21T01:58:11;11.18;;;8.30;;
52188;SDS011;38162;45.926;13.608;2023-11-21T02:00:41;27.95;;;11.82;;
52188;SDS011;38162;45.926;13.608;2023-11-21T02:03:08;19.42;;;12.43;;
52188;SDS011;38162;45.926;13.608;2023-11-21T02:05:35;26.52;;;17.98;;
52188;SDS011;38162;45.926;13.608;2023-11-21T02:08:01;30.52;;;18.58;;
52188;SDS011;38162;45.926;13.608;2023-11-21T02:10:28;27.00;;;19.50;;
52188;SDS011;38162;45.926;13.608;2023-11-21T02:12:54;25.55;;;18.45;;
52188;SDS011;38162;45.926;13.608;2023-11-21T02:15:21;25.70;;;18.60;;
52188;SDS011;38162;45.926;13.608;2023-11-21T02:17:48;24.48;;;17.33;;
52188;SDS011;38162;45.926;13.608;2023-11-21T02:20:18;23.52;;;16.92;;
52188;SDS011;38162;45.926;13.608;2023-11-21T02:22:56;22.50;;;16.25;;
52188;SDS011;38162;45.926;13.608;2023-11-21T02:25:26;24.10;;;16.23;;
52188;SDS011;38162;45.926;13.608;2023-11-21T02:27:56;23.20;;;16.45;;
52188;SDS011;38162;45.926;13.608;2023-11-21T02:30:22;20.60;;;15.85;;
52188;SDS011;38162;45.926;13.608;2023-11-21T02:32:50;21.17;;;16.60;;
52188;SDS011;38162;45.926;13.608;2023-11-21T02:35:18;21.27;;;16.77;;
52188;SDS011;38162;45.926;13.608;2023-11-21T02:37:46;25.25;;;17.60;;
52188;SDS011;38162;45.926;13.608;2023-11-21T02:40:12;24.55;;;15.73;;
52188;SDS011;38162;45.926;13.608;2023-11-21T02:42:42;19.15;;;14.00;;
52188;SDS011;38162;45.926;13.608;2023-11-21T02:45:12;18.27;;;12.52;;
52188;SDS011;38162;45.926;13.608;2023-11-21T02:47:41;16.90;;;10.90;;
52188;SDS011;38162;45.926;13.608;2023-11-21T02:50:08;15.98;;;11.07;;
52188;SDS011;38162;45.926;13.608;2023-11-21T02:52:34;20.58;;;11.85;;
52188;SDS011;38162;45.926;13.608;2023-11-21T02:55:03;15.02;;;11.15;;
52188;SDS011;38162;45.926;13.608;2023-11-21T02:57:29;15.65;;;11.88;;
52188;SDS011;38162;45.926;13.608;2023-11-21T02:59:55;24.73;;;13.90;;
52188;SDS011;38162;45.926;13.608;2023-11-21T03:02:21;21.35;;;12.35;;
52188;SDS011;38162;45.926;13.608;2023-11-21T03:04:47;17.17;;;13.65;;
52188;SDS011;38162;45.926;13.608;2023-11-21T03:07:14;19.25;;;13.70;;
52188;SDS011;38162;45.926;13.608;2023-11-21T03:09:40;21.65;;;13.30;;
52188;SDS011;38162;45.926;13.608;2023-11-21T03:12:06;12.75;;;8.88;;
52188;SDS011;38162;45.926;13.608;2023-11-21T03:14:33;10.45;;;6.75;;
52188;SDS011;38162;45.926;13.608;2023-11-21T03:16:59;10.02;;;5.80;;
52188;SDS011;38162;45.926;13.608;2023-11-21T03:19:25;9.52;;;6.50;;
52188;SDS011;38162;45.926;13.608;2023-11-21T03:21:51;8.30;;;6.03;;
52188;SDS011;38162;45.926;13.608;2023-11-21T03:24:18;7.63;;;5.32;;
52188;SDS011;38162;45.926;13.608;2023-11-21T03:26:45;9.45;;;5.75;;
52188;SDS011;38162;45.926;13.608;2023-11-21T03:29:11;10.25;;;5.82;;
52188;SDS011;38162;45.926;13.608;2023-11-21T03:31:37;9.98;;;6.45;;
52188;SDS011;38162;45.926;13.608;2023-11-21T03:34:04;11.32;;;7.03;;
52188;SDS011;38162;45.926;13.608;2023-11-21T03:36:31;8.85;;;6.20;;
52188;SDS011;38162;45.926;13.608;2023-11-21T03:38:57;10.75;;;6.40;;
52188;SDS011;38162;45.926;13.608;2023-11-21T03:41:22;10.40;;;6.25;;
52188;SDS011;38162;45.926;13.608;2023-11-21T03:43:48;10.38;;;6.60;;
52188;SDS011;38162;45.926;13.608;2023-11-21T03:46:14;11.48;;;6.13;;
52188;SDS011;38162;45.926;13.608;2023-11-21T03:48:40;10.32;;;6.45;;
52188;SDS011;38162;45.926;13.608;2023-11-21T03:51:07;7.63;;;6.55;;
52188;SDS011;38162;45.926;13.608;2023-11-21T03:53:32;9.93;;;7.57;;
52188;SDS011;38162;45.926;13.608;2023-11-21T03:55:58;10.02;;;7.50;;
52188;SDS011;38162;45.926;13.608;2023-11-21T03:58:26;9.60;;;6.57;;
52188;SDS011;38162;45.926;13.608;2023-11-21T04:00:52;12.23;;;6.60;;
52188;SDS011;38162;45.926;13.608;2023-11-21T04:03:18;15.57;;;7.45;;
52188;SDS011;38162;45.926;13.608;2023-11-21T04:05:44;12.63;;;8.45;;
52188;SDS011;38162;45.926;13.608;2023-11-21T04:08:10;13.38;;;7.93;;
52188;SDS011;38162;45.926;13.608;2023-11-21T04:10:36;11.60;;;7.50;;
52188;SDS011;38162;45.926;13.608;2023-11-21T04:13:04;10.90;;;7.70;;
52188;SDS011;38162;45.926;13.608;2023-11-21T04:15:31;10.90;;;7.95;;
52188;SDS011;38162;45.926;13.608;2023-11-21T04:17:57;10.35;;;7.43;;
52188;SDS011;38162;45.926;13.608;2023-11-21T04:20:23;17.70;;;15.85;;
52188;SDS011;38162;45.926;13.608;2023-11-21T04:22:50;15.52;;;11.45;;
52188;SDS011;38162;45.926;13.608;2023-11-21T04:25:16;12.15;;;8.23;;
52188;SDS011;38162;45.926;13.608;2023-11-21T04:27:43;7.80;;;5.75;;
52188;SDS011;38162;45.926;13.608;2023-11-21T04:30:10;8.15;;;5.70;;
52188;SDS011;38162;45.926;13.608;2023-11-21T04:32:39;8.93;;;7.03;;
52188;SDS011;38162;45.926;13.608;2023-11-21T04:35:05;12.65;;;7.32;;
52188;SDS011;38162;45.926;13.608;2023-11-21T04:37:31;11.80;;;9.73;;
52188;SDS011;38162;45.926;13.608;2023-11-21T04:39:57;11.45;;;6.82;;
52188;SDS011;38162;45.926;13.608;2023-11-21T04:42:22;10.20;;;6.72;;
52188;SDS011;38162;45.926;13.608;2023-11-21T04:44:48;9.38;;;5.68;;
52188;SDS011;38162;45.926;13.608;2023-11-21T04:47:14;11.48;;;5.60;;
52188;SDS011;38162;45.926;13.608;2023-11-21T04:49:42;9.68;;;5.72;;
52188;SDS011;38162;45.926;13.608;2023-11-21T04:52:08;9.23;;;5.50;;
52188;SDS011;38162;45.926;13.608;2023-11-21T04:54:35;11.82;;;6.28;;
52188;SDS011;38162;45.926;13.608;2023-11-21T04:57:01;8.48;;;5.20;;
52188;SDS011;38162;45.926;13.608;2023-11-21T04:59:27;7.78;;;5.40;;
52188;SDS011;38162;45.926;13.608;2023-11-21T05:01:53;13.95;;;5.65;;
52188;SDS011;38162;45.926;13.608;2023-11-21T05:04:19;9.40;;;5.50;;
52188;SDS011;38162;45.926;13.608;2023-11-21T05:06:47;7.75;;;5.28;;
52188;SDS011;38162;45.926;13.608;2023-11-21T05:09:13;8.07;;;5.55;;
52188;SDS011;38162;45.926;13.608;2023-11-21T05:11:40;10.38;;;5.55;;
52188;SDS011;38162;45.926;13.608;2023-11-21T05:14:06;9.52;;;5.72;;
52188;SDS011;38162;45.926;13.608;2023-11-21T05:16:33;8.05;;;5.88;;
52188;SDS011;38162;45.926;13.608;2023-11-21T05:19:00;8.40;;;5.70;;
52188;SDS011;38162;45.926;13.608;2023-11-21T05:21:29;7.95;;;5.57;;
52188;SDS011;38162;45.926;13.608;2023-11-21T05:23:58;11.05;;;5.57;;
52188;SDS011;38162;45.926;13.608;2023-11-21T05:26:24;11.60;;;5.47;;
52188;SDS011;38162;45.926;13.608;2023-11-21T05:28:50;16.30;;;6.55;;
52188;SDS011;38162;45.926;13.608;2023-11-21T05:31:15;13.48;;;7.38;;
52188;SDS011;38162;45.926;13.608;2023-11-21T05:33:41;11.27;;;6.50;;
52188;SDS011;38162;45.926;13.608;2023-11-21T05:36:07;13.52;;;6.25;;
52188;SDS011;38162;45.926;13.608;2023-11-21T05:38:35;11.60;;;6.40;;
52188;SDS011;38162;45.926;13.608;2023-11-21T05:41:01;11.60;;;7.00;;
52188;SDS011;38162;45.926;13.608;2023-11-21T05:43:28;11.43;;;7.25;;
52188;SDS011;38162;45.926;13.608;2023-11-21T05:45:56;13.13;;;7.15;;
52188;SDS011;38162;45.926;13.608;2023-11-21T05:48:22;11.18;;;6.90;;
52188;SDS011;38162;45.926;13.608;2023-11-21T05:50:48;11.68;;;6.85;;
52188;SDS011;38162;45.926;13.608;2023-11-21T05:53:15;12.60;;;7.60;;
52188;SDS011;38162;45.926;13.608;2023-11-21T05:55:41;10.32;;;6.63;;
52188;SDS011;38162;45.926;13.608;2023-11-21T05:58:07;12.55;;;6.65;;
52188;SDS011;38162;45.926;13.608;2023-11-21T06:00:33;12.00;;;7.13;;
52188;SDS011;38162;45.926;13.608;2023-11-21T06:02:58;10.93;;;6.88;;
52188;SDS011;38162;45.926;13.608;2023-11-21T06:05:24;10.55;;;6.95;;
52188;SDS011;38162;45.926;13.608;2023-11-21T06:07:51;13.98;;;6.95;;
52188;SDS011;38162;45.926;13.608;2023-11-21T06:10:19;10.82;;;7.43;;
52188;SDS011;38162;45.926;13.608;2023-11-21T06:12:46;9.85;;;6.90;;
52188;SDS011;38162;45.926;13.608;2023-11-21T06:15:12;8.13;;;7.07;;
52188;SDS011;38162;45.926;13.608;2023-11-21T06:17:44;10.73;;;7.63;;
52188;SDS011;38162;45.926;13.608;2023-11-21T06:20:10;12.00;;;7.72;;
52188;SDS011;38162;45.926;13.608;2023-11-21T06:22:39;11.32;;;7.05;;
52188;SDS011;38162;45.926;13.608;2023-11-21T06:25:06;13.88;;;7.15;;
52188;SDS011;38162;45.926;13.608;2023-11-21T06:27:37;12.05;;;7.55;;
52188;SDS011;38162;45.926;13.608;2023-11-21T06:30:04;9.50;;;7.07;;
52188;SDS011;38162;45.926;13.608;2023-11-21T06:32:31;11.35;;;7.18;;
52188;SDS011;38162;45.926;13.608;2023-11-21T06:34:57;9.70;;;7.43;;
52188;SDS011;38162;45.926;13.608;2023-11-21T06:37:26;9.25;;;6.63;;
52188;SDS011;38162;45.926;13.608;2023-11-21T06:39:53;9.45;;;7.30;;
52188;SDS011;38162;45.926;13.608;2023-11-21T06:42:19;10.20;;;6.95;;
52188;SDS011;38162;45.926;13.608;2023-11-21T06:44:45;11.77;;;7.57;;
52188;SDS011;38162;45.926;13.608;2023-11-21T06:47:12;11.57;;;7.88;;
52188;SDS011;38162;45.926;13.608;2023-11-21T06:49:37;10.90;;;8.05;;
52188;SDS011;38162;45.926;13.608;2023-11-21T06:52:04;12.02;;;8.95;;
52188;SDS011;38162;45.926;13.608;2023-11-21T06:54:32;12.05;;;8.60;;
52188;SDS011;38162;45.926;13.608;2023-11-21T06:56:58;15.20;;;8.05;;
52188;SDS011;38162;45.926;13.608;2023-11-21T06:59:24;10.07;;;7.28;;
52188;SDS011;38162;45.926;13.608;2023-11-21T07:01:50;13.85;;;7.88;;
52188;SDS011;38162;45.926;13.608;2023-11-21T07:04:15;11.77;;;7.40;;
52188;SDS011;38162;45.926;13.608;2023-11-21T07:06:41;11.15;;;7.20;;
52188;SDS011;38162;45.926;13.608;2023-11-21T07:09:08;12.38;;;7.63;;
52188;SDS011;38162;45.926;13.608;2023-11-21T07:11:36;12.18;;;7.20;;
52188;SDS011;38162;45.926;13.608;2023-11-21T07:14:03;10.43;;;6.20;;
52188;SDS011;38162;45.926;13.608;2023-11-21T07:16:38;11.55;;;5.80;;
52188;SDS011;38162;45.926;13.608;2023-11-21T07:19:04;9.95;;;6.32;;
52188;SDS011;38162;45.926;13.608;2023-11-21T07:21:34;9.18;;;6.32;;
52188;SDS011;38162;45.926;13.608;2023-11-21T07:24:01;9.10;;;5.90;;
52188;SDS011;38162;45.926;13.608;2023-11-21T07:26:31;8.27;;;5.00;;
52188;SDS011;38162;45.926;13.608;2023-11-21T07:29:03;18.77;;;6.70;;
52188;SDS011;38162;45.926;13.608;2023-11-21T07:31:29;9.10;;;5.60;;
52188;SDS011;38162;45.926;13.608;2023-11-21T07:33:55;6.20;;;4.88;;
52188;SDS011;38162;45.926;13.608;2023-11-21T07:36:24;8.02;;;4.35;;
52188;SDS011;38162;45.926;13.608;2023-11-21T07:38:50;6.13;;;3.92;;
52188;SDS011;38162;45.926;13.608;2023-11-21T07:41:17;7.20;;;4.40;;
52188;SDS011;38162;45.926;13.608;2023-11-21T07:43:43;8.00;;;4.45;;
52188;SDS011;38162;45.926;13.608;2023-11-21T07:46:10;6.78;;;4.50;;
52188;SDS011;38162;45.926;13.608;2023-11-21T07:48:37;5.25;;;3.95;;
52188;SDS011;38162;45.926;13.608;2023-11-21T07:51:07;8.85;;;4.50;;
52188;SDS011;38162;45.926;13.608;2023-11-21T07:53:34;7.07;;;4.75;;
52188;SDS011;38162;45.926;13.608;2023-11-21T07:56:04;8.10;;;5.43;;
52188;SDS011;38162;45.926;13.608;2023-11-21T07:58:30;13.95;;;8.40;;
52188;SDS011;38162;45.926;13.608;2023-11-21T08:00:58;14.75;;;8.18;;
52188;SDS011;38162;45.926;13.608;2023-11-21T08:03:24;11.98;;;4.68;;
52188;SDS011;38162;45.926;13.608;2023-11-21T08:05:52;9.68;;;5.60;;
52188;SDS011;38162;45.926;13.608;2023-11-21T08:08:18;15.38;;;5.90;;
52188;SDS011;38162;45.926;13.608;2023-11-21T08:10:44;10.70;;;5.47;;
52188;SDS011;38162;45.926;13.608;2023-11-21T08:13:21;6.13;;;3.95;;
52188;SDS011;38162;45.926;13.608;2023-11-21T08:15:47;7.85;;;4.10;;
52188;SDS011;38162;45.926;13.608;2023-11-21T08:18:13;7.10;;;3.63;;
52188;SDS011;38162;45.926;13.608;2023-11-21T08:20:40;5.63;;;3.50;;
52188;SDS011;38162;45.926;13.608;2023-11-21T08:23:06;10.20;;;4.85;;
52188;SDS011;38162;45.926;13.608;2023-11-21T08:25:32;12.88;;;6.28;;
52188;SDS011;38162;45.926;13.608;2023-11-21T08:27:59;32.05;;;17.05;;
52188;SDS011;38162;45.926;13.608;2023-11-21T08:30:26;38.38;;;21.83;;
52188;SDS011;38162;45.926;13.608;2023-11-21T08:32:55;39.78;;;25.25;;
52188;SDS011;38162;45.926;13.608;2023-11-21T08:35:23;39.15;;;21.48;;
52188;SDS011;38162;45.926;13.608;2023-11-21T08:37:52;30.02;;;17.23;;
52188;SDS011;38162;45.926;13.608;2023-11-21T08:40:18;24.55;;;14.82;;
52188;SDS011;38162;45.926;13.608;2023-11-21T08:42:46;16.73;;;8.73;;
52188;SDS011;38162;45.926;13.608;2023-11-21T08:45:13;11.13;;;5.40;;
52188;SDS011;38162;45.926;13.608;2023-11-21T08:47:42;6.68;;;3.83;;
52188;SDS011;38162;45.926;13.608;2023-11-21T08:50:11;7.90;;;4.45;;
52188;SDS011;38162;45.926;13.608;2023-11-21T08:52:38;11.05;;;4.60;;
52188;SDS011;38162;45.926;13.608;2023-11-21T08:55:05;99.70;;;38.85;;
52188;SDS011;38162;45.926;13.608;2023-11-21T08:57:37;99.32;;;45.00;;
52188;SDS011;38162;45.926;13.608;2023-11-21T09:00:04;68.43;;;31.58;;
52188;SDS011;38162;45.926;13.608;2023-11-21T09:02:35;37.70;;;19.90;;
52188;SDS011;38162;45.926;13.608;2023-11-21T09:05:02;11.93;;;5.40;;
52188;SDS011;38162;45.926;13.608;2023-11-21T09:07:31;9.10;;;5.78;;
52188;SDS011;38162;45.926;13.608;2023-11-21T09:09:57;5.65;;;3.40;;
52188;SDS011;38162;45.926;13.608;2023-11-21T09:12:23;6.97;;;4.20;;
52188;SDS011;38162;45.926;13.608;2023-11-21T09:14:52;9.13;;;3.90;;
52188;SDS011;38162;45.926;13.608;2023-11-21T09:17:18;7.82;;;3.08;;
52188;SDS011;38162;45.926;13.608;2023-11-21T09:19:44;5.40;;;2.95;;
52188;SDS011;38162;45.926;13.608;2023-11-21T09:22:14;5.20;;;2.28;;
52188;SDS011;38162;45.926;13.608;2023-11-21T09:24:40;3.65;;;2.63;;
52188;SDS011;38162;45.926;13.608;2023-11-21T09:27:07;4.47;;;2.55;;
52188;SDS011;38162;45.926;13.608;2023-11-21T09:29:34;5.32;;;2.10;;
52188;SDS011;38162;45.926;13.608;2023-11-21T09:32:01;4.50;;;2.30;;
52188;SDS011;38162;45.926;13.608;2023-11-21T09:34:28;4.03;;;2.58;;
52188;SDS011;38162;45.926;13.608;2023-11-21T09:36:53;5.30;;;2.85;;
52188;SDS011;38162;45.926;13.608;2023-11-21T09:39:19;4.25;;;1.98;;
52188;SDS011;38162;45.926;13.608;2023-11-21T09:41:58;3.72;;;1.70;;
52188;SDS011;38162;45.926;13.608;2023-11-21T09:47:26;3.05;;;1.40;;
52188;SDS011;38162;45.926;13.608;2023-11-21T09:49:53;5.43;;;1.55;;
52188;SDS011;38162;45.926;13.608;2023-11-21T09:52:25;2.33;;;1.20;;
52188;SDS011;38162;45.926;13.608;2023-11-21T09:54:55;2.08;;;1.20;;
52188;SDS011;38162;45.926;13.608;2023-11-21T09:57:24;3.38;;;1.30;;
52188;SDS011;38162;45.926;13.608;2023-11-21T09:59:50;3.47;;;0.88;;
52188;SDS011;38162;45.926;13.608;2023-11-21T10:02:27;1.92;;;1.02;;
52188;SDS011;38162;45.926;13.608;2023-11-21T10:04:55;2.13;;;1.20;;
52188;SDS011;38162;45.926;13.608;2023-11-21T10:07:21;2.40;;;1.20;;
52188;SDS011;38162;45.926;13.608;2023-11-21T10:09:48;5.55;;;1.10;;
52188;SDS011;38162;45.926;13.608;2023-11-21T10:12:16;2.72;;;1.50;;
52188;SDS011;38162;45.926;13.608;2023-11-21T10:14:42;2.15;;;1.15;;
52188;SDS011;38162;45.926;13.608;2023-11-21T10:17:12;1.98;;;1.00;;
52188;SDS011;38162;45.926;13.608;2023-11-21T10:19:41;1.80;;;1.10;;
52188;SDS011;38162;45.926;13.608;2023-11-21T10:22:08;1.73;;;0.80;;
52188;SDS011;38162;45.926;13.608;2023-11-21T10:24:34;1.33;;;0.82;;
52188;SDS011;38162;45.926;13.608;2023-11-21T10:27:02;1.67;;;0.80;;
52188;SDS011;38162;45.926;13.608;2023-11-21T10:29:31;1.80;;;0.85;;
52188;SDS011;38162;45.926;13.608;2023-11-21T10:32:01;1.48;;;1.00;;
52188;SDS011;38162;45.926;13.608;2023-11-21T10:34:27;0.88;;;0.70;;
52188;SDS011;38162;45.926;13.608;2023-11-21T10:36:53;1.92;;;0.88;;
52188;SDS011;38162;45.926;13.608;2023-11-21T10:39:23;2.28;;;1.00;;
52188;SDS011;38162;45.926;13.608;2023-11-21T10:41:52;5.25;;;0.80;;
52188;SDS011;38162;45.926;13.608;2023-11-21T10:44:20;1.05;;;0.70;;
52188;SDS011;38162;45.926;13.608;2023-11-21T10:46:53;1.30;;;1.00;;
52188;SDS011;38162;45.926;13.608;2023-11-21T10:49:23;1.33;;;0.80;;
52188;SDS011;38162;45.926;13.608;2023-11-21T10:51:50;4.35;;;1.08;;
52188;SDS011;38162;45.926;13.608;2023-11-21T10:54:21;0.63;;;0.63;;
52188;SDS011;38162;45.926;13.608;2023-11-21T10:56:52;1.52;;;0.52;;
52188;SDS011;38162;45.926;13.608;2023-11-21T10:59:22;3.75;;;0.70;;
52188;SDS011;38162;45.926;13.608;2023-11-21T11:01:50;1.40;;;0.80;;
52188;SDS011;38162;45.926;13.608;2023-11-21T11:04:20;3.05;;;0.70;;
52188;SDS011;38162;45.926;13.608;2023-11-21T11:07:01;1.23;;;0.80;;
52188;SDS011;38162;45.926;13.608;2023-11-21T11:09:31;1.40;;;0.80;;
52188;SDS011;38162;45.926;13.608;2023-11-21T11:12:01;1.20;;;0.80;;
52188;SDS011;38162;45.926;13.608;2023-11-21T11:14:27;2.47;;;0.98;;
52188;SDS011;38162;45.926;13.608;2023-11-21T11:16:54;2.28;;;1.17;;
52188;SDS011;38162;45.926;13.608;2023-11-21T11:19:24;2.42;;;0.70;;
52188;SDS011;38162;45.926;13.608;2023-11-21T11:22:00;1.33;;;0.70;;
52188;SDS011;38162;45.926;13.608;2023-11-21T11:35:34;1.38;;;0.75;;
52188;SDS011;38162;45.926;13.608;2023-11-21T11:38:03;1.52;;;0.80;;
52188;SDS011;38162;45.926;13.608;2023-11-21T11:40:38;2.25;;;1.35;;
52188;SDS011;38162;45.926;13.608;2023-11-21T11:43:05;2.97;;;1.00;;
52188;SDS011;38162;45.926;13.608;2023-11-21T11:45:32;2.10;;;0.70;;
52188;SDS011;38162;45.926;13.608;2023-11-21T11:48:00;1.77;;;1.00;;
52188;SDS011;38162;45.926;13.608;2023-11-21T11:50:28;2.20;;;1.25;;
52188;SDS011;38162;45.926;13.608;2023-11-21T11:52:55;1.65;;;1.10;;
52188;SDS011;38162;45.926;13.608;2023-11-21T11:55:38;1.88;;;1.00;;
52188;SDS011;38162;45.926;13.608;2023-11-21T11:58:05;5.53;;;0.75;;
52188;SDS011;38162;45.926;13.608;2023-11-21T12:03:00;1.65;;;1.13;;
52188;SDS011;38162;45.926;13.608;2023-11-21T12:05:28;2.95;;;1.13;;
52188;SDS011;38162;45.926;13.608;2023-11-21T12:10:31;1.73;;;0.70;;
52188;SDS011;38162;45.926;13.608;2023-11-21T12:13:08;1.23;;;0.82;;
52188;SDS011;38162;45.926;13.608;2023-11-21T12:15:35;2.33;;;0.98;;
52188;SDS011;38162;45.926;13.608;2023-11-21T12:18:01;1.70;;;0.90;;
52188;SDS011;38162;45.926;13.608;2023-11-21T12:20:28;1.98;;;0.60;;
52188;SDS011;38162;45.926;13.608;2023-11-21T12:22:56;3.97;;;0.90;;
52188;SDS011;38162;45.926;13.608;2023-11-21T12:25:27;2.00;;;0.85;;
52188;SDS011;38162;45.926;13.608;2023-11-21T12:27:54;3.17;;;1.10;;
52188;SDS011;38162;45.926;13.608;2023-11-21T12:30:23;2.50;;;1.30;;
52188;SDS011;38162;45.926;13.608;2023-11-21T12:32:54;3.17;;;1.15;;
52188;SDS011;38162;45.926;13.608;2023-11-21T12:35:24;1.65;;;1.10;;
52188;SDS011;38162;45.926;13.608;2023-11-21T12:37:51;2.97;;;1.00;;
52188;SDS011;38162;45.926;13.608;2023-11-21T12:40:19;2.00;;;0.85;;
52188;SDS011;38162;45.926;13.608;2023-11-21T12:42:45;2.50;;;1.02;;
52188;SDS011;38162;45.926;13.608;2023-11-21T12:47:55;1.63;;;1.00;;
52188;SDS011;38162;45.926;13.608;2023-11-21T12:50:25;4.20;;;0.90;;
52188;SDS011;38162;45.926;13.608;2023-11-21T12:53:03;3.10;;;1.33;;
52188;SDS011;38162;45.926;13.608;2023-11-21T12:55:34;1.67;;;1.10;;
52188;SDS011;38162;45.926;13.608;2023-11-21T12:58:06;1.55;;;1.08;;
52188;SDS011;38162;45.926;13.608;2023-11-21T13:00:42;1.88;;;1.00;;
52188;SDS011;38162;45.926;13.608;2023-11-21T13:05:38;3.08;;;1.35;;
52188;SDS011;38162;45.926;13.608;2023-11-21T13:08:05;3.28;;;1.27;;
52188;SDS011;38162;45.926;13.608;2023-11-21T13:10:37;3.80;;;1.20;;
52188;SDS011;38162;45.926;13.608;2023-11-21T13:13:06;2.70;;;1.10;;
52188;SDS011;38162;45.926;13.608;2023-11-21T13:15:34;1.88;;;1.10;;
52188;SDS011;38162;45.926;13.608;2023-11-21T13:18:01;1.83;;;0.95;;
52188;SDS011;38162;45.926;13.608;2023-11-21T13:20:28;2.70;;;1.40;;
52188;SDS011;38162;45.926;13.608;2023-11-21T13:22:57;2.00;;;1.10;;
52188;SDS011;38162;45.926;13.608;2023-11-21T13:27:53;1.73;;;0.98;;
52188;SDS011;38162;45.926;13.608;2023-11-21T13:30:19;2.10;;;1.20;;
52188;SDS011;38162;45.926;13.608;2023-11-21T13:32:52;2.35;;;1.25;;
52188;SDS011;38162;45.926;13.608;2023-11-21T13:35:22;1.50;;;1.00;;
52188;SDS011;38162;45.926;13.608;2023-11-21T13:37:55;3.20;;;1.08;;
52188;SDS011;38162;45.926;13.608;2023-11-21T13:40:25;5.10;;;1.10;;
52188;SDS011;38162;45.926;13.608;2023-11-21T13:42:52;1.83;;;1.13;;
52188;SDS011;38162;45.926;13.608;2023-11-21T13:45:22;2.17;;;1.20;;
52188;SDS011;38162;45.926;13.608;2023-11-21T13:47:48;2.08;;;1.33;;
52188;SDS011;38162;45.926;13.608;2023-11-21T13:50:21;5.15;;;1.60;;
52188;SDS011;38162;45.926;13.608;2023-11-21T13:52:51;3.95;;;2.30;;
52188;SDS011;38162;45.926;13.608;2023-11-21T13:55:18;4.00;;;2.30;;
52188;SDS011;38162;45.926;13.608;2023-11-21T13:57:45;6.38;;;3.08;;
52188;SDS011;38162;45.926;13.608;2023-11-21T14:00:15;4.07;;;2.22;;
52188;SDS011;38162;45.926;13.608;2023-11-21T14:03:16;4.22;;;2.97;;
52188;SDS011;38162;45.926;13.608;2023-11-21T14:05:47;6.70;;;2.95;;
52188;SDS011;38162;45.926;13.608;2023-11-21T14:08:25;8.55;;;2.85;;
52188;SDS011;38162;45.926;13.608;2023-11-21T14:10:54;3.55;;;2.00;;
52188;SDS011;38162;45.926;13.608;2023-11-21T14:13:24;2.72;;;1.65;;
52188;SDS011;38162;45.926;13.608;2023-11-21T14:15:53;2.53;;;1.17;;
52188;SDS011;38162;45.926;13.608;2023-11-21T14:18:27;4.70;;;1.80;;
52188;SDS011;38162;45.926;13.608;2023-11-21T14:21:03;2.97;;;1.73;;
52188;SDS011;38162;45.926;13.608;2023-11-21T14:23:30;3.33;;;1.90;;
52188;SDS011;38162;45.926;13.608;2023-11-21T14:25:58;8.50;;;3.60;;
52188;SDS011;38162;45.926;13.608;2023-11-21T14:28:26;6.93;;;2.50;;
52188;SDS011;38162;45.926;13.608;2023-11-21T14:30:52;4.95;;;2.70;;
52188;SDS011;38162;45.926;13.608;2023-11-21T14:33:17;6.55;;;2.92;;
52188;SDS011;38162;45.926;13.608;2023-11-21T14:35:43;6.03;;;3.28;;
52188;SDS011;38162;45.926;13.608;2023-11-21T14:38:09;8.93;;;5.35;;
52188;SDS011;38162;45.926;13.608;2023-11-21T14:40:35;7.68;;;4.53;;
52188;SDS011;38162;45.926;13.608;2023-11-21T14:43:02;9.75;;;4.40;;
52188;SDS011;38162;45.926;13.608;2023-11-21T14:45:31;6.97;;;2.92;;
52188;SDS011;38162;45.926;13.608;2023-11-21T14:47:57;7.05;;;3.88;;
52188;SDS011;38162;45.926;13.608;2023-11-21T14:50:33;7.70;;;3.80;;
52188;SDS011;38162;45.926;13.608;2023-11-21T14:53:28;5.10;;;2.75;;
52188;SDS011;38162;45.926;13.608;2023-11-21T14:56:18;7.55;;;3.40;;